Time;durP1;ratioP1;P1;durP2;ratioP2;P2;SDS_P1;SDS_P2;PMS_P1;PMS_P2;Temp;Humidity;BMP_temperature;BMP_pressure;BME280_temperature;BME280_humidity;BME280_pressure;Samples;Min_cycle;Max_cycle;Signal;HPM_P1;HPM_P2
2021/12/03 00:01:32;;;;;;;3.27;2.10;;;;;;;;;;4432064;32;20361;-60
2021/12/03 00:03:58;;;;;;;6.50;3.13;;;;;;;;;;4430809;32;20241;-61
2021/12/03 00:06:23;;;;;;;8.37;3.37;;;;;;;;;;4419282;32;20665;-61
2021/12/03 00:08:49;;;;;;;8.07;3.40;;;;;;;;;;4419182;32;20263;-61
2021/12/03 00:11:15;;;;;;;4.40;3.20;;;;;;;;;;4447282;32;20311;-60
2021/12/03 00:13:42;;;;;;;9.47;3.20;;;;;;;;;;4434798;32;20228;-61
2021/12/03 00:16:08;;;;;;;7.83;3.60;;;;;;;;;;4438278;32;20225;-61
2021/12/03 00:18:34;;;;;;;5.47;2.97;;;;;;;;;;4418899;32;20339;-60
2021/12/03 00:21:04;;;;;;;8.03;3.80;;;;;;;;;;4433283;32;20344;-62
2021/12/03 00:23:30;;;;;;;4.07;3.10;;;;;;;;;;4433450;32;20320;-61
2021/12/03 00:26:00;;;;;;;3.53;2.80;;;;;;;;;;4432447;32;20658;-62
2021/12/03 00:28:27;;;;;;;4.37;2.63;;;;;;;;;;4417618;32;20371;-62
2021/12/03 00:30:53;;;;;;;44.33;18.80;;;;;;;;;;4418618;32;20546;-63
2021/12/03 00:33:18;;;;;;;39.33;18.20;;;;;;;;;;4417938;32;20241;-61
2021/12/03 00:35:43;;;;;;;16.97;9.87;;;;;;;;;;4418141;32;20310;-61
2021/12/03 00:38:09;;;;;;;8.67;4.63;;;;;;;;;;4417758;32;20240;-62
2021/12/03 00:40:39;;;;;;;6.03;3.70;;;;;;;;;;4417584;32;20299;-61
2021/12/03 00:43:05;;;;;;;7.37;3.83;;;;;;;;;;4404155;32;20255;-60
2021/12/03 00:45:31;;;;;;;4.97;3.30;;;;;;;;;;4417909;32;20340;-62
2021/12/03 00:47:58;;;;;;;9.97;3.27;;;;;;;;;;4403884;32;20527;-63
2021/12/03 00:50:24;;;;;;;4.77;2.30;;;;;;;;;;4416202;32;20252;-61
2021/12/03 00:52:51;;;;;;;2.87;2.23;;;;;;;;;;4417561;32;20232;-61
2021/12/03 00:55:19;;;;;;;5.73;2.43;;;;;;;;;;4417797;32;20201;-62
2021/12/03 00:57:44;;;;;;;3.20;2.40;;;;;;;;;;4417570;32;20276;-62
2021/12/03 01:00:17;;;;;;;3.57;2.87;;;;;;;;;;4417740;32;20358;-60
2021/12/03 01:02:43;;;;;;;2.57;2.37;;;;;;;;;;4424875;32;20744;-62
2021/12/03 01:05:09;;;;;;;8.37;4.13;;;;;;;;;;4432930;32;20283;-62
2021/12/03 01:07:35;;;;;;;6.43;3.40;;;;;;;;;;4432569;32;20375;-60
2021/12/03 01:10:02;;;;;;;7.13;3.30;;;;;;;;;;4439205;32;20301;-61
2021/12/03 01:12:28;;;;;;;5.50;2.83;;;;;;;;;;4434292;32;20224;-60
2021/12/03 01:14:54;;;;;;;4.73;2.83;;;;;;;;;;4446250;32;20334;-60
2021/12/03 01:17:19;;;;;;;6.30;3.37;;;;;;;;;;4435290;32;20208;-61
2021/12/03 01:19:45;;;;;;;6.07;3.47;;;;;;;;;;4436440;32;20765;-61
2021/12/03 01:22:11;;;;;;;3.13;2.80;;;;;;;;;;4435644;32;20231;-61
2021/12/03 01:24:36;;;;;;;4.50;3.10;;;;;;;;;;4422468;32;20744;-61
2021/12/03 01:27:02;;;;;;;4.90;2.67;;;;;;;;;;4436184;32;20293;-62
2021/12/03 01:29:28;;;;;;;4.20;3.10;;;;;;;;;;4422486;32;20281;-60
2021/12/03 01:31:56;;;;;;;4.87;3.00;;;;;;;;;;4436611;32;20201;-61
2021/12/03 01:34:22;;;;;;;8.23;3.60;;;;;;;;;;4436086;32;20221;-60
2021/12/03 01:36:48;;;;;;;3.67;2.50;;;;;;;;;;4436010;32;20237;-61
2021/12/03 01:39:14;;;;;;;3.47;2.60;;;;;;;;;;4436126;32;20640;-60
2021/12/03 01:41:40;;;;;;;10.87;3.30;;;;;;;;;;4421782;32;20584;-61
2021/12/03 01:44:07;;;;;;;3.87;3.00;;;;;;;;;;4422184;32;20740;-61
2021/12/03 01:46:33;;;;;;;6.10;3.40;;;;;;;;;;4421847;32;20360;-60
2021/12/03 01:48:59;;;;;;;4.10;2.80;;;;;;;;;;4436178;32;20228;-61
2021/12/03 01:51:25;;;;;;;6.10;3.83;;;;;;;;;;4435394;32;20323;-61
2021/12/03 01:53:52;;;;;;;7.23;4.30;;;;;;;;;;4436007;32;20593;-61
2021/12/03 01:56:18;;;;;;;4.87;3.23;;;;;;;;;;4435904;32;20307;-61
2021/12/03 01:58:47;;;;;;;6.87;3.20;;;;;;;;;;4435837;32;20267;-61
2021/12/03 02:01:16;;;;;;;14.33;3.13;;;;;;;;;;4435766;32;20669;-62
2021/12/03 02:03:45;;;;;;;5.73;3.47;;;;;;;;;;4435499;32;20639;-61
2021/12/03 02:06:11;;;;;;;7.60;3.93;;;;;;;;;;4435640;32;20197;-61
2021/12/03 02:08:38;;;;;;;5.87;3.97;;;;;;;;;;4421490;32;20256;-62
2021/12/03 02:11:06;;;;;;;5.53;3.47;;;;;;;;;;4448300;32;20376;-62
2021/12/03 02:13:32;;;;;;;9.57;4.60;;;;;;;;;;4436632;32;20722;-61
2021/12/03 02:15:57;;;;;;;4.57;3.50;;;;;;;;;;4441469;32;20280;-61
2021/12/03 02:18:24;;;;;;;9.97;3.43;;;;;;;;;;4434996;32;20285;-60
2021/12/03 02:20:53;;;;;;;3.73;3.10;;;;;;;;;;4421303;32;20312;-61
2021/12/03 02:23:19;;;;;;;5.07;2.60;;;;;;;;;;4435481;32;20237;-61
2021/12/03 02:25:46;;;;;;;4.10;2.93;;;;;;;;;;4435267;32;20292;-62
2021/12/03 02:28:12;;;;;;;4.97;3.07;;;;;;;;;;4435299;32;20625;-60
2021/12/03 02:30:38;;;;;;;8.73;2.87;;;;;;;;;;4421526;32;20385;-62
2021/12/03 02:33:04;;;;;;;3.40;2.47;;;;;;;;;;4421337;32;20236;-61
2021/12/03 02:35:30;;;;;;;5.37;2.67;;;;;;;;;;4434854;32;20348;-60
2021/12/03 02:37:55;;;;;;;3.63;2.43;;;;;;;;;;4435038;32;20309;-61
2021/12/03 02:40:23;;;;;;;3.80;3.07;;;;;;;;;;4435214;32;20280;-61
2021/12/03 02:42:49;;;;;;;4.23;2.70;;;;;;;;;;4405115;32;20685;-60
2021/12/03 02:45:16;;;;;;;5.07;2.43;;;;;;;;;;4408471;32;20775;-61
2021/12/03 02:47:42;;;;;;;4.43;3.07;;;;;;;;;;4434738;32;20205;-60
2021/12/03 02:50:10;;;;;;;4.03;2.67;;;;;;;;;;4427456;32;20682;-62
2021/12/03 02:52:36;;;;;;;6.90;3.07;;;;;;;;;;4419219;32;20292;-61
2021/12/03 02:55:02;;;;;;;3.63;2.90;;;;;;;;;;4419876;32;20317;-61
2021/12/03 02:57:28;;;;;;;7.93;3.17;;;;;;;;;;4419473;32;20208;-61
2021/12/03 02:59:53;;;;;;;3.47;2.50;;;;;;;;;;4418808;32;20631;-60
2021/12/03 03:02:19;;;;;;;11.13;4.10;;;;;;;;;;4427355;32;20311;-61
2021/12/03 03:04:44;;;;;;;5.10;3.33;;;;;;;;;;4434856;32;20221;-61
2021/12/03 03:07:10;;;;;;;6.40;3.53;;;;;;;;;;4434327;32;20200;-61
2021/12/03 03:09:35;;;;;;;9.83;4.20;;;;;;;;;;4437577;32;20397;-61
2021/12/03 03:12:01;;;;;;;8.27;3.00;;;;;;;;;;4435911;32;20255;-61
2021/12/03 03:14:27;;;;;;;6.60;2.90;;;;;;;;;;4450229;32;20236;-60
2021/12/03 03:16:54;;;;;;;3.13;2.33;;;;;;;;;;4435182;32;20636;-61
2021/12/03 03:19:22;;;;;;;4.43;2.70;;;;;;;;;;4434890;32;20305;-60
2021/12/03 03:21:48;;;;;;;2.47;1.90;;;;;;;;;;4434346;32;20209;-61
2021/12/03 03:24:15;;;;;;;3.63;1.90;;;;;;;;;;4434194;32;20255;-62
2021/12/03 03:26:43;;;;;;;6.30;1.83;;;;;;;;;;4434293;32;20205;-61
2021/12/03 03:29:10;;;;;;;2.57;2.00;;;;;;;;;;4433080;32;20292;-61
2021/12/03 03:31:37;;;;;;;2.43;1.90;;;;;;;;;;4420095;32;20232;-61
2021/12/03 03:34:04;;;;;;;7.27;2.60;;;;;;;;;;4434622;32;20258;-61
2021/12/03 03:36:39;;;;;;;6.57;2.50;;;;;;;;;;4434286;32;20200;-60
2021/12/03 03:39:08;;;;;;;3.53;2.73;;;;;;;;;;4420293;32;20224;-61
2021/12/03 03:41:33;;;;;;;4.97;2.10;;;;;;;;;;4433020;32;20295;-61
2021/12/03 03:44:00;;;;;;;2.13;1.60;;;;;;;;;;4434355;32;20233;-61
2021/12/03 03:46:26;;;;;;;4.77;2.23;;;;;;;;;;4434419;32;20653;-60
2021/12/03 03:48:51;;;;;;;4.60;2.63;;;;;;;;;;4433022;32;20258;-61
2021/12/03 03:51:17;;;;;;;3.73;2.23;;;;;;;;;;4433691;32;20283;-61
2021/12/03 03:53:43;;;;;;;6.20;3.10;;;;;;;;;;4433510;32;20366;-61
2021/12/03 03:56:10;;;;;;;4.57;2.67;;;;;;;;;;4419762;32;20288;-61
2021/12/03 03:58:41;;;;;;;3.10;2.10;;;;;;;;;;4434075;32;20300;-61
2021/12/03 04:01:10;;;;;;;4.30;1.77;;;;;;;;;;4419570;32;20629;-61
2021/12/03 04:03:36;;;;;;;5.90;2.43;;;;;;;;;;4433283;32;20623;-61
2021/12/03 04:06:02;;;;;;;5.87;2.50;;;;;;;;;;4426024;32;20304;-63
2021/12/03 04:08:29;;;;;;;6.27;2.53;;;;;;;;;;4433249;32;20221;-62
2021/12/03 04:10:55;;;;;;;9.87;4.77;;;;;;;;;;4416571;32;20262;-61
2021/12/03 04:13:21;;;;;;;11.87;7.17;;;;;;;;;;4418002;32;20348;-62
2021/12/03 04:15:47;;;;;;;13.30;6.20;;;;;;;;;;4418054;32;20365;-60
2021/12/03 04:18:12;;;;;;;11.83;4.50;;;;;;;;;;4417719;32;20342;-61
2021/12/03 04:20:38;;;;;;;4.97;3.23;;;;;;;;;;4403594;32;20292;-61
2021/12/03 04:23:03;;;;;;;3.87;3.03;;;;;;;;;;4404048;32;20282;-62
2021/12/03 04:25:29;;;;;;;3.47;2.63;;;;;;;;;;4417595;32;20302;-61
2021/12/03 04:27:54;;;;;;;9.03;2.23;;;;;;;;;;4417419;32;20241;-61
2021/12/03 04:30:27;;;;;;;3.13;1.63;;;;;;;;;;4403914;32;20272;-64
2021/12/03 04:32:54;;;;;;;2.67;2.07;;;;;;;;;;4417365;32;20351;-62
2021/12/03 04:35:19;;;;;;;17.47;4.60;;;;;;;;;;4417157;32;20324;-62
2021/12/03 04:37:46;;;;;;;3.67;2.23;;;;;;;;;;4417175;32;20649;-61
2021/12/03 04:40:14;;;;;;;3.67;2.27;;;;;;;;;;4417799;32;20281;-62
2021/12/03 04:42:40;;;;;;;6.30;2.00;;;;;;;;;;4417218;32;20672;-61
2021/12/03 04:45:08;;;;;;;5.63;2.43;;;;;;;;;;4418081;32;20300;-62
2021/12/03 04:47:34;;;;;;;3.17;2.47;;;;;;;;;;4432623;32;20298;-62
2021/12/03 04:50:00;;;;;;;2.30;2.10;;;;;;;;;;4431743;32;20262;-62
2021/12/03 04:52:26;;;;;;;5.83;2.93;;;;;;;;;;4418325;32;20232;-63
2021/12/03 04:54:52;;;;;;;6.97;3.00;;;;;;;;;;4418034;32;20260;-62
2021/12/03 04:57:18;;;;;;;4.50;2.80;;;;;;;;;;4432980;32;20253;-61
2021/12/03 04:59:43;;;;;;;5.60;3.03;;;;;;;;;;4433003;32;20221;-61
2021/12/03 05:02:09;;;;;;;5.87;2.77;;;;;;;;;;4430029;32;20236;-62
2021/12/03 05:04:38;;;;;;;3.03;2.20;;;;;;;;;;4433238;32;20315;-60
2021/12/03 05:09:37;;;;;;;5.13;3.30;;;;;;;;;;4433567;32;20217;-60
2021/12/03 05:12:04;;;;;;;4.50;1.57;;;;;;;;;;4448548;32;20255;-60
2021/12/03 05:14:30;;;;;;;2.63;1.83;;;;;;;;;;4434634;32;20248;-60
2021/12/03 05:16:56;;;;;;;5.10;2.87;;;;;;;;;;4448515;32;20334;-61
2021/12/03 05:19:22;;;;;;;3.10;2.47;;;;;;;;;;4448488;32;20237;-61
2021/12/03 05:21:48;;;;;;;4.30;2.60;;;;;;;;;;4448507;32;20251;-62
2021/12/03 05:24:14;;;;;;;4.30;3.27;;;;;;;;;;4449138;32;20367;-60
2021/12/03 05:26:40;;;;;;;10.17;3.90;;;;;;;;;;4448494;32;20209;-61
2021/12/03 05:29:07;;;;;;;5.23;3.20;;;;;;;;;;4448468;32;20753;-62
2021/12/03 05:31:34;;;;;;;4.83;2.83;;;;;;;;;;4448889;32;20237;-61
2021/12/03 05:34:01;;;;;;;6.50;3.20;;;;;;;;;;4448694;32;20232;-60
2021/12/03 05:36:26;;;;;;;2.87;1.60;;;;;;;;;;4448540;32;20313;-60
2021/12/03 05:38:52;;;;;;;4.00;1.90;;;;;;;;;;4421535;32;20327;-62
2021/12/03 05:41:18;;;;;;;4.93;1.90;;;;;;;;;;4448177;32;20331;-61
2021/12/03 05:43:43;;;;;;;7.70;2.50;;;;;;;;;;4431568;32;20268;-62
2021/12/03 05:46:09;;;;;;;3.27;2.03;;;;;;;;;;4433098;32;20356;-61
2021/12/03 05:48:35;;;;;;;7.70;2.90;;;;;;;;;;4433030;32;20338;-61
2021/12/03 05:51:00;;;;;;;3.70;2.00;;;;;;;;;;4427422;32;20334;-62
2021/12/03 05:53:26;;;;;;;3.17;1.83;;;;;;;;;;4418319;32;20228;-60
2021/12/03 05:55:52;;;;;;;3.17;2.07;;;;;;;;;;4432759;32;20272;-62
2021/12/03 05:58:18;;;;;;;3.40;1.87;;;;;;;;;;4431768;32;20279;-62
2021/12/03 06:00:44;;;;;;;3.70;2.17;;;;;;;;;;4418675;32;20303;-63
2021/12/03 06:03:11;;;;;;;5.43;2.10;;;;;;;;;;4431620;32;20689;-61
2021/12/03 06:05:39;;;;;;;2.73;1.73;;;;;;;;;;4421252;32;20300;-61
2021/12/03 06:08:04;;;;;;;2.23;1.87;;;;;;;;;;4421139;32;20360;-61
2021/12/03 06:10:30;;;;;;;6.30;2.20;;;;;;;;;;4435319;32;20739;-62
2021/12/03 06:12:56;;;;;;;2.90;1.83;;;;;;;;;;4421155;32;20240;-62
2021/12/03 06:15:22;;;;;;;4.80;2.30;;;;;;;;;;4435709;32;20304;-61
2021/12/03 06:17:47;;;;;;;8.53;2.57;;;;;;;;;;4434921;32;20251;-61
2021/12/03 06:20:13;;;;;;;14.67;4.53;;;;;;;;;;4421116;32;20320;-63
2021/12/03 06:22:40;;;;;;;7.83;2.97;;;;;;;;;;4420814;32;20363;-61
2021/12/03 06:25:07;;;;;;;5.47;2.67;;;;;;;;;;4435028;32;20653;-60
2021/12/03 06:27:33;;;;;;;8.60;2.83;;;;;;;;;;4434632;32;20263;-64
2021/12/03 06:29:59;;;;;;;4.23;2.37;;;;;;;;;;4434798;32;20288;-61
2021/12/03 06:32:24;;;;;;;3.67;1.80;;;;;;;;;;4420975;32;20267;-60
2021/12/03 06:34:51;;;;;;;3.10;1.97;;;;;;;;;;4434820;32;20520;-61
2021/12/03 06:37:16;;;;;;;13.67;2.37;;;;;;;;;;4434806;32;20244;-61
2021/12/03 06:39:42;;;;;;;2.90;1.63;;;;;;;;;;4434071;32;20232;-62
2021/12/03 06:42:08;;;;;;;5.33;1.97;;;;;;;;;;4434958;32;20205;-61
2021/12/03 06:44:34;;;;;;;7.67;2.27;;;;;;;;;;4435224;32;20260;-63
2021/12/03 06:47:02;;;;;;;7.57;3.70;;;;;;;;;;4420861;32;20237;-61
2021/12/03 06:49:29;;;;;;;7.17;3.83;;;;;;;;;;4430113;32;20237;-62
2021/12/03 06:52:00;;;;;;;6.97;3.03;;;;;;;;;;4434100;32;20273;-62
2021/12/03 06:54:29;;;;;;;9.70;5.30;;;;;;;;;;4420732;32;20347;-62
2021/12/03 06:56:55;;;;;;;12.37;3.93;;;;;;;;;;4434506;32;20330;-61
2021/12/03 06:59:22;;;;;;;14.00;3.33;;;;;;;;;;4434600;32;20229;-61
2021/12/03 07:01:48;;;;;;;8.40;3.57;;;;;;;;;;4416816;32;20340;-62
2021/12/03 07:04:14;;;;;;;4.90;2.33;;;;;;;;;;4417442;32;20252;-64
2021/12/03 07:06:40;;;;;;;5.27;2.37;;;;;;;;;;4415273;32;20582;-61
2021/12/03 07:09:06;;;;;;;3.93;2.30;;;;;;;;;;4434211;32;20307;-61
2021/12/03 07:11:32;;;;;;;4.87;2.70;;;;;;;;;;4433976;32;20617;-61
2021/12/03 07:13:58;;;;;;;3.17;1.90;;;;;;;;;;4433173;32;20364;-62
2021/12/03 07:16:24;;;;;;;9.30;3.63;;;;;;;;;;4433967;32;20456;-61
2021/12/03 07:18:49;;;;;;;8.73;4.20;;;;;;;;;;4418729;32;20701;-62
2021/12/03 07:21:15;;;;;;;8.23;4.00;;;;;;;;;;4420190;32;20737;-63
2021/12/03 07:23:40;;;;;;;18.70;7.70;;;;;;;;;;4434775;32;20519;-62
2021/12/03 07:26:06;;;;;;;4.10;2.83;;;;;;;;;;4434339;32;20279;-62
2021/12/03 07:28:32;;;;;;;6.60;4.07;;;;;;;;;;4434402;32;20274;-61
2021/12/03 07:30:58;;;;;;;9.63;4.43;;;;;;;;;;4434283;32;20310;-62
2021/12/03 07:33:24;;;;;;;10.60;2.40;;;;;;;;;;4420220;32;20241;-61
2021/12/03 07:35:49;;;;;;;2.33;1.57;;;;;;;;;;4433933;32;20276;-62
2021/12/03 07:38:17;;;;;;;6.70;3.90;;;;;;;;;;4434529;32;20667;-62
2021/12/03 07:40:44;;;;;;;4.57;2.70;;;;;;;;;;4434171;32;20643;-62
2021/12/03 07:43:09;;;;;;;9.57;4.90;;;;;;;;;;4434027;32;20220;-62
2021/12/03 07:45:36;;;;;;;9.27;3.57;;;;;;;;;;4434332;32;20734;-63
2021/12/03 07:48:02;;;;;;;5.40;2.63;;;;;;;;;;4419893;32;20261;-62
2021/12/03 07:50:27;;;;;;;14.30;3.43;;;;;;;;;;4419003;32;20612;-62
2021/12/03 07:52:53;;;;;;;6.47;4.00;;;;;;;;;;4433371;32;20300;-63
2021/12/03 07:55:19;;;;;;;10.00;4.20;;;;;;;;;;4419450;32;20312;-60
2021/12/03 07:57:44;;;;;;;5.13;2.67;;;;;;;;;;4419456;32;20353;-62
2021/12/03 08:00:10;;;;;;;4.10;1.57;;;;;;;;;;4419688;32;20395;-62
2021/12/03 08:02:36;;;;;;;2.00;1.80;;;;;;;;;;4432877;32;20240;-62
2021/12/03 08:05:03;;;;;;;4.60;1.50;;;;;;;;;;4419215;32;20695;-61
2021/12/03 08:07:28;;;;;;;2.33;1.77;;;;;;;;;;4418763;32;20296;-61
2021/12/03 08:09:54;;;;;;;9.93;2.33;;;;;;;;;;4435046;32;20330;-63
2021/12/03 08:12:19;;;;;;;3.40;2.13;;;;;;;;;;4448029;32;20259;-62
2021/12/03 08:14:45;;;;;;;5.17;2.40;;;;;;;;;;4448222;32;20878;-64
2021/12/03 08:17:11;;;;;;;3.73;2.03;;;;;;;;;;4433699;32;20323;-62
2021/12/03 08:19:36;;;;;;;3.10;1.57;;;;;;;;;;4434270;32;20486;-62
2021/12/03 08:22:02;;;;;;;7.67;2.40;;;;;;;;;;4434969;32;20681;-62
2021/12/03 08:24:28;;;;;;;7.70;2.47;;;;;;;;;;4448203;32;20232;-61
2021/12/03 08:26:54;;;;;;;3.33;2.33;;;;;;;;;;4448880;32;20243;-61
2021/12/03 08:29:19;;;;;;;5.70;2.17;;;;;;;;;;4449365;32;20303;-61
2021/12/03 08:31:45;;;;;;;7.00;2.27;;;;;;;;;;4437676;32;20307;-61
2021/12/03 08:34:10;;;;;;;6.03;2.27;;;;;;;;;;4433698;32;20224;-61
2021/12/03 08:36:36;;;;;;;2.20;1.57;;;;;;;;;;4433394;32;20240;-63
2021/12/03 08:39:03;;;;;;;2.20;1.20;;;;;;;;;;4419625;32;20641;-61
2021/12/03 08:41:29;;;;;;;7.93;2.33;;;;;;;;;;4433621;32;20235;-61
2021/12/03 08:43:54;;;;;;;6.37;2.00;;;;;;;;;;4433321;32;20613;-60
2021/12/03 08:46:25;;;;;;;5.30;1.67;;;;;;;;;;4416641;32;20307;-62
2021/12/03 08:48:51;;;;;;;4.60;2.17;;;;;;;;;;4418005;32;20236;-61
2021/12/03 08:56:14;;;;;;;10.17;2.70;;;;;;;;;;4433402;32;20256;-61
2021/12/03 08:58:40;;;;;;;4.70;1.70;;;;;;;;;;4419099;32;20268;-62
2021/12/03 09:01:08;;;;;;;13.37;5.33;;;;;;;;;;4433471;32;20396;-62
2021/12/03 09:03:33;;;;;;;7.37;4.70;;;;;;;;;;4416851;32;20272;-61
2021/12/03 09:05:59;;;;;;;8.67;3.27;;;;;;;;;;4433207;32;20578;-64
2021/12/03 09:08:26;;;;;;;9.20;2.53;;;;;;;;;;4433104;32;20244;-61
2021/12/03 09:10:51;;;;;;;20.30;3.60;;;;;;;;;;4421086;32;20240;-61
2021/12/03 09:13:17;;;;;;;7.40;3.10;;;;;;;;;;4434026;32;20228;-62
2021/12/03 09:15:49;;;;;;;5.87;2.50;;;;;;;;;;4448059;32;20651;-61
2021/12/03 09:18:22;;;;;;;9.23;2.40;;;;;;;;;;4448489;32;20239;-60
2021/12/03 09:26:05;;;;;;;7.00;3.00;;;;;;;;;;4447746;32;20305;-61
2021/12/03 09:28:32;;;;;;;2.47;1.53;;;;;;;;;;4408468;32;20685;-62
2021/12/03 09:30:58;;;;;;;21.70;10.83;;;;;;;;;;4432813;32;20409;-62
2021/12/03 09:33:27;;;;;;;79.43;35.10;;;;;;;;;;4432475;32;20623;-61
2021/12/03 09:35:56;;;;;;;9.07;6.33;;;;;;;;;;4432545;32;20366;-62
2021/12/03 09:38:21;;;;;;;4.87;3.63;;;;;;;;;;4434639;32;20259;-61
2021/12/03 09:40:48;;;;;;;46.80;34.33;;;;;;;;;;4435572;32;20302;-62
2021/12/03 09:43:14;;;;;;;3.00;1.80;;;;;;;;;;4435572;32;20772;-62
2021/12/03 09:45:45;;;;;;;18.57;9.10;;;;;;;;;;4435334;32;20299;-62
2021/12/03 09:48:40;;;;;;;66.37;31.07;;;;;;;;;;4421862;32;20244;-62
2021/12/03 09:51:06;;;;;;;21.20;4.00;;;;;;;;;;4422121;32;20292;-61
2021/12/03 09:56:16;;;;;;;4.13;1.37;;;;;;;;;;4435522;32;20322;-61
2021/12/03 09:59:38;;;;;;;4.60;2.33;;;;;;;;;;4435974;32;20319;-62
2021/12/03 10:01:42;;;;;;;40.10;16.07;;;;;;;;;;4434119;32;20309;-61
2021/12/03 10:14:47;;;;;;;10.07;2.57;;;;;;;;;;4451028;32;20322;-61
2021/12/03 10:20:19;;;;;;;3.50;2.07;;;;;;;;;;4451014;32;20227;-60
2021/12/03 10:31:01;;;;;;;20.70;7.73;;;;;;;;;;4407136;32;20201;-60
2021/12/03 10:59:52;;;;;;;6.30;2.20;;;;;;;;;;4434238;32;20653;-61
2021/12/03 11:16:59;;;;;;;6.73;2.00;;;;;;;;;;4450091;32;20228;-61
2021/12/03 11:28:20;;;;;;;9.70;2.47;;;;;;;;;;4434434;32;20247;-60
2021/12/03 12:18:34;;;;;;;6.07;2.70;;;;;;;;;;4417687;32;20542;-61
2021/12/03 14:42:09;;;;;;;21.63;6.60;;;;;;;;;;4449406;32;20288;-62
2021/12/03 14:45:28;;;;;;;11.63;4.83;;;;;;;;;;4448772;32;20260;-61
2021/12/03 14:55:35;;;;;;;379.83;152.03;;;;;;;;;;4431748;32;20335;-62
2021/12/03 14:58:12;;;;;;;141.07;80.73;;;;;;;;;;4431678;32;20740;-61
2021/12/03 15:03:48;;;;;;;10.10;3.93;;;;;;;;;;4431941;32;20845;-62
2021/12/03 15:37:37;;;;;;;45.27;21.83;;;;;;;;;;4449384;32;20225;-60
2021/12/03 16:52:01;;;;;;;10.50;3.90;;;;;;;;;;4432591;32;20313;-62
2021/12/03 16:54:33;;;;;;;20.70;10.90;;;;;;;;;;4432892;32;20743;-61
2021/12/03 16:56:59;;;;;;;7.70;4.40;;;;;;;;;;4433225;32;20197;-62
2021/12/03 16:59:25;;;;;;;13.73;8.50;;;;;;;;;;4433097;32;20224;-62
2021/12/03 17:02:07;;;;;;;21.03;10.40;;;;;;;;;;4432713;32;20263;-61
2021/12/03 17:57:25;;;;;;;22.83;10.70;;;;;;;;;;4432649;32;20647;-62
2021/12/03 17:59:52;;;;;;;18.83;11.00;;;;;;;;;;4435209;32;20275;-61
2021/12/03 18:06:02;;;;;;;27.27;14.60;;;;;;;;;;4351014;32;20226;-63
2021/12/03 18:56:56;;;;;;;30.20;15.70;;;;;;;;;;4418645;32;20632;-62
2021/12/03 18:59:27;;;;;;;22.10;12.00;;;;;;;;;;4404272;32;20589;-61
2021/12/03 19:01:53;;;;;;;21.27;11.70;;;;;;;;;;4424884;32;20320;-61
2021/12/03 19:04:23;;;;;;;21.50;9.70;;;;;;;;;;4434389;32;20252;-61
2021/12/03 19:09:31;;;;;;;18.10;8.13;;;;;;;;;;4435525;32;20252;-61
2021/12/03 19:12:12;;;;;;;12.97;7.17;;;;;;;;;;4449555;32;20221;-62
2021/12/03 19:14:41;;;;;;;23.90;10.13;;;;;;;;;;4435669;32;20224;-62
2021/12/03 19:17:08;;;;;;;18.77;8.53;;;;;;;;;;4449630;32;20553;-62
2021/12/03 19:19:42;;;;;;;20.07;12.43;;;;;;;;;;4449213;32;20265;-61
2021/12/03 19:22:07;;;;;;;20.17;10.77;;;;;;;;;;4435725;32;20302;-61
2021/12/03 19:24:33;;;;;;;19.43;12.37;;;;;;;;;;4442047;32;20593;-62
2021/12/03 19:26:59;;;;;;;25.47;10.10;;;;;;;;;;4420053;32;20263;-62
2021/12/03 19:29:25;;;;;;;27.00;10.77;;;;;;;;;;4417502;32;20234;-60
2021/12/03 19:31:51;;;;;;;17.83;9.70;;;;;;;;;;4418614;32;20209;-60
2021/12/03 19:34:20;;;;;;;19.93;11.43;;;;;;;;;;4418787;32;20578;-61
2021/12/03 19:36:46;;;;;;;20.73;9.77;;;;;;;;;;4418611;32;20342;-61
2021/12/03 19:39:15;;;;;;;17.00;8.77;;;;;;;;;;4427712;32;20240;-61
2021/12/03 19:44:19;;;;;;;15.40;7.50;;;;;;;;;;4431552;32;20587;-61
2021/12/03 19:46:49;;;;;;;17.37;9.07;;;;;;;;;;4431656;32;20419;-61
2021/12/03 19:52:24;;;;;;;50.03;24.57;;;;;;;;;;4432296;32;20683;-60
2021/12/03 19:54:49;;;;;;;51.50;31.03;;;;;;;;;;4430147;32;20241;-62
2021/12/03 19:57:15;;;;;;;44.93;24.10;;;;;;;;;;4433259;32;20464;-62
2021/12/03 19:59:41;;;;;;;35.27;19.73;;;;;;;;;;4418756;32;20236;-69
2021/12/03 20:02:07;;;;;;;36.37;17.73;;;;;;;;;;4426938;32;20276;-60
2021/12/03 20:04:32;;;;;;;30.53;14.10;;;;;;;;;;4431527;32;20829;-62
2021/12/03 20:07:01;;;;;;;28.37;12.77;;;;;;;;;;4433523;32;20204;-62
2021/12/03 20:09:34;;;;;;;23.27;11.17;;;;;;;;;;4433010;32;20346;-62
2021/12/03 20:12:06;;;;;;;19.00;8.43;;;;;;;;;;4419058;32;20278;-62
2021/12/03 20:14:32;;;;;;;20.00;12.40;;;;;;;;;;4419299;32;20298;-62
2021/12/03 20:17:03;;;;;;;27.53;11.90;;;;;;;;;;4427552;32;20652;-61
2021/12/03 20:19:34;;;;;;;23.27;11.53;;;;;;;;;;4418425;32;20245;-61
2021/12/03 20:24:51;;;;;;;27.53;14.10;;;;;;;;;;4415983;32;20616;-61
2021/12/03 20:27:18;;;;;;;51.70;22.20;;;;;;;;;;4418009;32;20352;-61
2021/12/03 20:29:53;;;;;;;85.77;36.47;;;;;;;;;;4416502;32;20461;-62
2021/12/03 20:37:18;;;;;;;88.33;44.37;;;;;;;;;;4417737;32;20205;-62
2021/12/03 20:39:45;;;;;;;67.90;37.50;;;;;;;;;;4416379;32;20225;-61
2021/12/03 20:42:25;;;;;;;84.73;41.60;;;;;;;;;;4417760;32;20307;-62
2021/12/03 20:53:03;;;;;;;98.23;44.27;;;;;;;;;;4433088;32;20589;-60
2021/12/03 21:09:15;;;;;;;73.63;34.90;;;;;;;;;;4433462;32;20770;-61
2021/12/03 21:11:44;;;;;;;61.80;34.70;;;;;;;;;;4447772;32;20251;-62
2021/12/03 21:14:16;;;;;;;84.47;41.07;;;;;;;;;;4448662;32;20654;-61
2021/12/03 21:22:07;;;;;;;139.50;62.60;;;;;;;;;;4432794;32;20247;-62
2021/12/03 21:24:34;;;;;;;119.43;62.57;;;;;;;;;;4432712;32;20752;-62
2021/12/03 21:27:06;;;;;;;123.47;64.97;;;;;;;;;;4418700;32;20294;-62
2021/12/03 21:32:03;;;;;;;122.17;59.47;;;;;;;;;;4417482;32;20241;-61
2021/12/03 21:42:34;;;;;;;120.97;60.70;;;;;;;;;;4435725;32;20224;-61
2021/12/03 21:44:59;;;;;;;128.93;60.90;;;;;;;;;;4421833;32;20558;-61
2021/12/03 21:47:25;;;;;;;119.57;60.27;;;;;;;;;;4435701;32;20310;-61
2021/12/03 21:49:50;;;;;;;108.43;55.43;;;;;;;;;;4420990;32;20276;-61
2021/12/03 21:52:16;;;;;;;110.73;50.87;;;;;;;;;;4435544;32;20360;-61
2021/12/03 21:54:41;;;;;;;95.17;47.73;;;;;;;;;;4421728;32;20249;-61
2021/12/03 21:57:07;;;;;;;88.90;45.50;;;;;;;;;;4435654;32;20239;-62
2021/12/03 21:59:32;;;;;;;90.93;44.37;;;;;;;;;;4435026;32;20386;-62
2021/12/03 22:01:59;;;;;;;84.33;43.50;;;;;;;;;;4435218;32;20278;-61
2021/12/03 22:04:25;;;;;;;84.53;43.20;;;;;;;;;;4435362;32;20312;-62
2021/12/03 22:06:51;;;;;;;69.40;34.23;;;;;;;;;;4435424;32;20296;-61
2021/12/03 22:09:19;;;;;;;51.63;24.27;;;;;;;;;;4422226;32;20729;-61
2021/12/03 22:11:45;;;;;;;53.60;26.43;;;;;;;;;;4450454;32;20597;-60
2021/12/03 22:14:10;;;;;;;55.57;25.77;;;;;;;;;;4437741;32;20263;-61
2021/12/03 22:16:36;;;;;;;52.70;23.90;;;;;;;;;;4416868;32;20342;-61
2021/12/03 22:19:01;;;;;;;27.63;15.70;;;;;;;;;;4406319;32;20713;-62
2021/12/03 22:21:27;;;;;;;21.77;11.63;;;;;;;;;;4419942;32;20239;-61
2021/12/03 22:23:53;;;;;;;20.40;13.10;;;;;;;;;;4419822;32;20316;-60
2021/12/03 22:26:19;;;;;;;16.87;8.57;;;;;;;;;;4434122;32;20304;-61
2021/12/03 22:28:46;;;;;;;12.80;6.10;;;;;;;;;;4434886;32;20296;-61
2021/12/03 22:31:12;;;;;;;6.73;3.80;;;;;;;;;;4435358;32;20240;-61
2021/12/03 22:33:40;;;;;;;6.80;3.53;;;;;;;;;;4435031;32;20633;-61
2021/12/03 22:36:06;;;;;;;7.30;3.73;;;;;;;;;;4420912;32;20252;-61
2021/12/03 22:38:32;;;;;;;4.53;2.97;;;;;;;;;;4434181;32;20363;-61
2021/12/03 22:40:58;;;;;;;4.77;3.13;;;;;;;;;;4420563;32;20359;-62
2021/12/03 22:43:24;;;;;;;3.23;2.40;;;;;;;;;;4434560;32;20288;-61
2021/12/03 22:50:52;;;;;;;4.30;2.27;;;;;;;;;;4434859;32;20217;-61
2021/12/03 22:53:18;;;;;;;3.17;2.20;;;;;;;;;;4434972;32;20254;-60
2021/12/03 22:55:44;;;;;;;3.33;2.23;;;;;;;;;;4435269;32;20205;-60
2021/12/03 22:58:10;;;;;;;2.13;1.80;;;;;;;;;;4435141;32;20224;-61
2021/12/03 23:00:45;;;;;;;7.53;2.57;;;;;;;;;;4435145;32;20272;-62
2021/12/03 23:03:14;;;;;;;5.03;2.57;;;;;;;;;;4434872;32;20311;-60
2021/12/03 23:05:41;;;;;;;6.83;2.53;;;;;;;;;;4435119;32;20193;-61
2021/12/03 23:08:07;;;;;;;2.50;2.00;;;;;;;;;;4435327;32;20609;-60
2021/12/03 23:10:34;;;;;;;2.83;1.80;;;;;;;;;;4420704;32;20351;-61
2021/12/03 23:13:00;;;;;;;3.93;2.67;;;;;;;;;;4434878;32;20233;-60
2021/12/03 23:15:26;;;;;;;4.93;2.10;;;;;;;;;;4420825;32;20273;-61
2021/12/03 23:17:53;;;;;;;5.80;2.47;;;;;;;;;;4420690;32;20384;-61
2021/12/03 23:20:19;;;;;;;7.90;2.50;;;;;;;;;;4407837;32;20264;-61
2021/12/03 23:22:45;;;;;;;3.67;1.93;;;;;;;;;;4434219;32;20322;-61
2021/12/03 23:25:11;;;;;;;3.13;1.87;;;;;;;;;;4434925;32;21118;-61
2021/12/03 23:27:36;;;;;;;4.93;2.10;;;;;;;;;;4434248;32;20667;-61
2021/12/03 23:30:03;;;;;;;2.13;1.23;;;;;;;;;;4434433;32;20275;-60
2021/12/03 23:32:28;;;;;;;4.47;1.60;;;;;;;;;;4434272;32;20301;-60
2021/12/03 23:34:54;;;;;;;2.03;1.70;;;;;;;;;;4434306;32;20300;-60
2021/12/03 23:37:20;;;;;;;5.70;2.60;;;;;;;;;;4434147;32;20208;-61
2021/12/03 23:39:45;;;;;;;3.53;2.23;;;;;;;;;;4420439;32;20358;-59
2021/12/03 23:42:11;;;;;;;4.83;1.73;;;;;;;;;;4434206;32;20582;-61
2021/12/03 23:44:36;;;;;;;1.97;1.80;;;;;;;;;;4434328;32;20293;-61
2021/12/03 23:47:02;;;;;;;4.63;1.90;;;;;;;;;;4434085;32;20288;-61
2021/12/03 23:49:28;;;;;;;3.40;1.80;;;;;;;;;;4420120;32;20268;-59